Flight Number: EUR2433 Duration: 1:15
Departure: Geneva Cointrin Airport (LSGG) at 07:30 Distance: 462 Nm
Arrival: Split (LDSP) at 08:45 Equipment: A321

Weather Information
Geneve-Cointrin, Switzerland (LSGG) 46-15N 006-08E 416M May 24, 2018 - 05:20 PM EDT / 2018.05.24 2120 UTC
Wind: Variable at 1 MPH (1 KT):0
Visibility: greater than 7 mile(s):0
Sky conditions: overcast Temperature: 64 F (18 C) Dew Point: 53 F (12 C) Relative Humidity: 67% Pressure (altimeter): 30.06 in. Hg (1018 hPa)
ob: LSGG 242120Z VRB01KT 9999 FEW090 OVC100 18/12 Q1018 NOSIG cycle: 21
Sunrise: 03:56 Sunset: 19:08 (UTC)

Split / Resnik, Croatia (LDSP) 43-32N 016-18E 21M May 24, 2018 - 05:30 PM EDT / 2018.05.24 2130 UTC
Wind: from the W (270 degrees) at 3 MPH (3 KT) (direction variable):0
Visibility: greater than 7 mile(s):0 Temperature: 69 F (21 C) Dew Point: 59 F (15 C) Relative Humidity: 68% Pressure (altimeter): 29.94 in. Hg (1014 hPa)
ob: LDSP 242130Z 27003KT 250V310 CAVOK 21/15 Q1014 NOSIG cycle: 21
Sunrise: 03:24 Sunset: 18:18 (UTC)

TAF:2018/05/24 18:27 TAF LDSP 241725Z 2418/2518 33008KT CAVOK TX27/2511Z TN18/2504Z BECMG 2510/2512 23008KT PROB30 TEMPO 2512/2516 TS FEW030CB BECMG 2517/2518 33005KT

Previous Pireps for this route
Date Aircraft Flight time Fuel used Landing rate On time
2016-04-06A32101.2812708-258No
2016-08-28A32101.419894-217No
(pireps marked green are flown by you)

Route map